Capitol, Montana
Current Conditions -  °F | °C
As of 5:16 PM on Monday 22 Dec 2014 (Local Time) from KBHK Reporting Station
Light Snow Light Snow  
Wind Chill:   Ceiling: 2500
Heat Index: 24°   Visibility: 1.7mi
Dew Point: 22°   Wind: 22mph
Humidity: 91%   Direction: 320°NW
Pressure: 29.76"   Gusts: 32mph
Location:  45.44°N, 104.07°W
Report Text: KBHK 230016Z AUTO 32019G28KT 1 3/4SM -SN BR FEW011 OVC025 M04/M06 A2976 RMK AO2 PK WND 32032/0002 P0000 T10441056
Loading
Personal Weather Stations






























Interactive Weather Map New forecast layout! Learn more

10-Day Weather Forecast

Advertisements
Track Severe Weather on mobile